sensor_id;sensor_type;location;lat;lon;timestamp;pressure;altitude;pressure_sealevel;temperature;humidity
42705;BME280;28342;42.594;23.414;2023-04-09T00:01:30;94675.72;;;7.33;91.16
42705;BME280;28342;42.594;23.414;2023-04-09T00:03:56;94680.41;;;7.41;90.59
42705;BME280;28342;42.594;23.414;2023-04-09T00:06:21;94676.97;;;7.40;90.36
42705;BME280;28342;42.594;23.414;2023-04-09T00:08:48;94656.53;;;7.27;90.50
42705;BME280;28342;42.594;23.414;2023-04-09T00:11:15;94634.06;;;7.11;90.52
42705;BME280;28342;42.594;23.414;2023-04-09T00:13:41;94675.97;;;7.36;90.63
42705;BME280;28342;42.594;23.414;2023-04-09T00:16:08;94676.47;;;7.38;90.47
42705;BME280;28342;42.594;23.414;2023-04-09T00:18:54;94678.78;;;7.21;90.66
42705;BME280;28342;42.594;23.414;2023-04-09T00:21:23;94683.50;;;7.24;90.44
42705;BME280;28342;42.594;23.414;2023-04-09T00:23:51;94675.31;;;7.26;89.83
42705;BME280;28342;42.594;23.414;2023-04-09T00:26:16;94677.44;;;7.24;88.64
42705;BME280;28342;42.594;23.414;2023-04-09T00:28:42;94668.28;;;7.16;88.16
42705;BME280;28342;42.594;23.414;2023-04-09T00:31:08;94687.44;;;7.27;87.83
42705;BME280;28342;42.594;23.414;2023-04-09T00:33:35;94684.16;;;7.11;87.73
42705;BME280;28342;42.594;23.414;2023-04-09T00:36:01;94673.72;;;7.01;87.54
42705;BME280;28342;42.594;23.414;2023-04-09T00:38:27;94675.78;;;7.04;86.90
42705;BME280;28342;42.594;23.414;2023-04-09T00:40:52;94683.69;;;7.04;86.29
42705;BME280;28342;42.594;23.414;2023-04-09T00:43:19;94666.94;;;6.95;86.11
42705;BME280;28342;42.594;23.414;2023-04-09T00:45:46;94650.63;;;6.64;85.49
42705;BME280;28342;42.594;23.414;2023-04-09T00:48:12;94659.25;;;6.69;85.66
42705;BME280;28342;42.594;23.414;2023-04-09T00:50:39;94684.84;;;6.69;86.38
42705;BME280;28342;42.594;23.414;2023-04-09T00:53:06;94663.19;;;6.43;86.75
42705;BME280;28342;42.594;23.414;2023-04-09T00:55:32;94672.63;;;6.49;87.01
42705;BME280;28342;42.594;23.414;2023-04-09T00:57:58;94673.00;;;6.37;87.35
42705;BME280;28342;42.594;23.414;2023-04-09T01:00:24;94666.44;;;6.35;86.91
42705;BME280;28342;42.594;23.414;2023-04-09T01:02:55;94663.28;;;6.33;87.16
42705;BME280;28342;42.594;23.414;2023-04-09T01:05:25;94670.91;;;6.34;87.52
42705;BME280;28342;42.594;23.414;2023-04-09T01:16:24;94669.00;;;6.06;87.95
42705;BME280;28342;42.594;23.414;2023-04-09T01:19:18;94694.06;;;6.03;88.46
42705;BME280;28342;42.594;23.414;2023-04-09T01:21:49;94671.44;;;5.97;88.37
42705;BME280;28342;42.594;23.414;2023-04-09T01:24:35;94682.69;;;6.08;88.24
42705;BME280;28342;42.594;23.414;2023-04-09T01:27:05;94661.47;;;5.89;88.42
42705;BME280;28342;42.594;23.414;2023-04-09T01:29:36;94659.19;;;5.72;89.09
42705;BME280;28342;42.594;23.414;2023-04-09T01:32:08;94678.88;;;5.80;89.46
42705;BME280;28342;42.594;23.414;2023-04-09T01:34:35;94670.00;;;5.70;89.53
42705;BME280;28342;42.594;23.414;2023-04-09T01:37:03;94686.25;;;5.83;89.06
42705;BME280;28342;42.594;23.414;2023-04-09T01:39:29;94668.97;;;5.61;89.44
42705;BME280;28342;42.594;23.414;2023-04-09T01:41:56;94650.63;;;5.46;89.50
42705;BME280;28342;42.594;23.414;2023-04-09T01:44:23;94679.53;;;5.51;89.82
42705;BME280;28342;42.594;23.414;2023-04-09T01:46:50;94661.19;;;5.41;89.57
42705;BME280;28342;42.594;23.414;2023-04-09T01:49:17;94656.75;;;5.36;89.96
42705;BME280;28342;42.594;23.414;2023-04-09T01:51:43;94673.78;;;5.54;89.71
42705;BME280;28342;42.594;23.414;2023-04-09T01:54:10;94653.31;;;5.41;89.07
42705;BME280;28342;42.594;23.414;2023-04-09T01:56:43;94675.97;;;5.37;89.39
42705;BME280;28342;42.594;23.414;2023-04-09T01:59:14;94661.75;;;5.33;89.03
42705;BME280;28342;42.594;23.414;2023-04-09T02:02:03;94683.78;;;5.47;89.03
42705;BME280;28342;42.594;23.414;2023-04-09T02:04:39;94680.09;;;5.48;88.75
42705;BME280;28342;42.594;23.414;2023-04-09T02:07:40;94680.66;;;5.35;89.12
42705;BME280;28342;42.594;23.414;2023-04-09T02:10:08;94673.91;;;5.19;89.51
42705;BME280;28342;42.594;23.414;2023-04-09T02:12:37;94666.81;;;5.14;89.30
42705;BME280;28342;42.594;23.414;2023-04-09T02:15:06;94686.00;;;5.25;89.68
42705;BME280;28342;42.594;23.414;2023-04-09T02:17:34;94677.59;;;5.23;89.96
42705;BME280;28342;42.594;23.414;2023-04-09T02:19:59;94658.66;;;5.21;89.59
42705;BME280;28342;42.594;23.414;2023-04-09T02:22:25;94656.00;;;5.26;89.55
42705;BME280;28342;42.594;23.414;2023-04-09T02:24:50;94670.72;;;5.27;90.19
42705;BME280;28342;42.594;23.414;2023-04-09T02:27:16;94680.66;;;5.35;90.49
42705;BME280;28342;42.594;23.414;2023-04-09T02:29:42;94678.81;;;5.40;90.16
42705;BME280;28342;42.594;23.414;2023-04-09T02:32:19;94656.59;;;5.02;91.20
42705;BME280;28342;42.594;23.414;2023-04-09T02:34:44;94666.03;;;5.14;91.17
42705;BME280;28342;42.594;23.414;2023-04-09T02:37:10;94660.03;;;5.08;91.33
42705;BME280;28342;42.594;23.414;2023-04-09T02:39:35;94666.00;;;5.24;90.81
42705;BME280;28342;42.594;23.414;2023-04-09T02:42:01;94672.81;;;5.30;90.68
42705;BME280;28342;42.594;23.414;2023-04-09T02:44:26;94653.94;;;5.13;90.63
42705;BME280;28342;42.594;23.414;2023-04-09T02:46:52;94648.41;;;5.14;90.56
42705;BME280;28342;42.594;23.414;2023-04-09T02:49:19;94663.31;;;5.34;90.67
42705;BME280;28342;42.594;23.414;2023-04-09T02:51:46;94668.84;;;5.37;91.20
42705;BME280;28342;42.594;23.414;2023-04-09T02:54:12;94674.34;;;5.41;91.53
42705;BME280;28342;42.594;23.414;2023-04-09T02:56:37;94658.84;;;5.34;91.75
42705;BME280;28342;42.594;23.414;2023-04-09T02:59:03;94652.81;;;5.29;91.89
42705;BME280;28342;42.594;23.414;2023-04-09T03:01:30;94646.06;;;5.13;91.70
42705;BME280;28342;42.594;23.414;2023-04-09T03:04:00;94666.53;;;5.26;91.66
42705;BME280;28342;42.594;23.414;2023-04-09T03:06:27;94653.91;;;5.18;91.90
42705;BME280;28342;42.594;23.414;2023-04-09T03:08:54;94659.22;;;5.13;92.95
42705;BME280;28342;42.594;23.414;2023-04-09T03:11:30;94666.31;;;5.12;93.13
42705;BME280;28342;42.594;23.414;2023-04-09T03:13:55;94657.06;;;5.20;92.78
42705;BME280;28342;42.594;23.414;2023-04-09T03:16:23;94652.34;;;5.17;92.54
42705;BME280;28342;42.594;23.414;2023-04-09T03:18:50;94661.78;;;5.28;92.58
42705;BME280;28342;42.594;23.414;2023-04-09T03:21:16;94668.06;;;5.37;92.60
42705;BME280;28342;42.594;23.414;2023-04-09T03:24:04;94647.34;;;5.20;92.24
42705;BME280;28342;42.594;23.414;2023-04-09T03:26:31;94656.22;;;5.34;91.96
42705;BME280;28342;42.594;23.414;2023-04-09T03:29:02;94661.75;;;5.38;91.82
42705;BME280;28342;42.594;23.414;2023-04-09T03:31:28;94669.56;;;5.48;92.03
42705;BME280;28342;42.594;23.414;2023-04-09T03:33:55;94648.16;;;5.21;93.00
42705;BME280;28342;42.594;23.414;2023-04-09T03:36:27;94667.28;;;5.36;92.86
42705;BME280;28342;42.594;23.414;2023-04-09T03:39:17;94670.16;;;5.35;92.68
42705;BME280;28342;42.594;23.414;2023-04-09T03:41:43;94670.41;;;5.33;92.79
42705;BME280;28342;42.594;23.414;2023-04-09T03:44:09;94676.69;;;5.48;92.67
42705;BME280;28342;42.594;23.414;2023-04-09T03:46:34;94654.13;;;5.31;92.36
42705;BME280;28342;42.594;23.414;2023-04-09T03:49:00;94644.94;;;5.29;92.28
42705;BME280;28342;42.594;23.414;2023-04-09T03:51:27;94645.25;;;5.22;92.47
42705;BME280;28342;42.594;23.414;2023-04-09T03:53:53;94688.50;;;5.50;92.84
42705;BME280;28342;42.594;23.414;2023-04-09T03:56:18;94677.97;;;5.50;92.88
42705;BME280;28342;42.594;23.414;2023-04-09T03:58:44;94688.22;;;5.57;92.81
42705;BME280;28342;42.594;23.414;2023-04-09T04:01:15;94661.94;;;5.47;93.35
42705;BME280;28342;42.594;23.414;2023-04-09T04:03:43;94688.97;;;5.62;93.32
42705;BME280;28342;42.594;23.414;2023-04-09T04:06:10;94678.97;;;5.64;93.77
42705;BME280;28342;42.594;23.414;2023-04-09T04:08:35;94660.09;;;5.52;94.01
42705;BME280;28342;42.594;23.414;2023-04-09T04:11:07;94671.66;;;5.56;95.31
42705;BME280;28342;42.594;23.414;2023-04-09T04:13:41;94676.59;;;5.63;95.73
42705;BME280;28342;42.594;23.414;2023-04-09T04:16:09;94687.88;;;5.74;95.70
42705;BME280;28342;42.594;23.414;2023-04-09T04:18:43;94687.88;;;5.74;95.96
42705;BME280;28342;42.594;23.414;2023-04-09T04:21:13;94695.19;;;5.82;96.43
42705;BME280;28342;42.594;23.414;2023-04-09T04:23:39;94690.72;;;5.82;96.65
42705;BME280;28342;42.594;23.414;2023-04-09T04:26:08;94701.50;;;5.91;96.18
42705;BME280;28342;42.594;23.414;2023-04-09T04:28:37;94703.84;;;5.97;95.54
42705;BME280;28342;42.594;23.414;2023-04-09T04:31:21;94677.25;;;5.89;96.09
42705;BME280;28342;42.594;23.414;2023-04-09T04:33:46;94699.81;;;6.05;95.33
42705;BME280;28342;42.594;23.414;2023-04-09T04:36:13;94690.81;;;6.11;95.06
42705;BME280;28342;42.594;23.414;2023-04-09T04:38:38;94683.47;;;6.08;94.59
42705;BME280;28342;42.594;23.414;2023-04-09T04:41:05;94708.41;;;6.21;94.54
42705;BME280;28342;42.594;23.414;2023-04-09T04:43:31;94701.81;;;6.23;94.86
42705;BME280;28342;42.594;23.414;2023-04-09T04:45:56;94683.41;;;6.18;94.29
42705;BME280;28342;42.594;23.414;2023-04-09T04:48:22;94693.88;;;6.28;93.72
42705;BME280;28342;42.594;23.414;2023-04-09T04:50:54;94683.28;;;6.34;93.84
42705;BME280;28342;42.594;23.414;2023-04-09T04:53:20;94696.47;;;6.34;93.71
42705;BME280;28342;42.594;23.414;2023-04-09T04:55:51;94698.53;;;6.37;94.43
42705;BME280;28342;42.594;23.414;2023-04-09T04:58:17;94669.63;;;6.32;94.67
42705;BME280;28342;42.594;23.414;2023-04-09T05:00:44;94676.91;;;6.45;93.43
42705;BME280;28342;42.594;23.414;2023-04-09T05:03:11;94689.88;;;6.65;92.64
42705;BME280;28342;42.594;23.414;2023-04-09T05:05:37;94681.97;;;6.65;94.03
42705;BME280;28342;42.594;23.414;2023-04-09T05:08:02;94697.72;;;6.75;92.36
42705;BME280;28342;42.594;23.414;2023-04-09T05:10:28;94712.78;;;6.99;91.39
42705;BME280;28342;42.594;23.414;2023-04-09T05:13:10;94699.09;;;6.97;91.55
42705;BME280;28342;42.594;23.414;2023-04-09T05:15:57;94709.19;;;7.13;91.04
42705;BME280;28342;42.594;23.414;2023-04-09T05:18:22;94696.34;;;7.07;89.78
42705;BME280;28342;42.594;23.414;2023-04-09T05:20:51;94707.28;;;7.19;90.67
42705;BME280;28342;42.594;23.414;2023-04-09T05:23:17;94714.03;;;7.30;91.71
42705;BME280;28342;42.594;23.414;2023-04-09T05:25:48;94710.31;;;7.31;89.06
42705;BME280;28342;42.594;23.414;2023-04-09T05:28:14;94691.41;;;7.24;89.21
42705;BME280;28342;42.594;23.414;2023-04-09T05:30:45;94700.78;;;7.35;87.87
42705;BME280;28342;42.594;23.414;2023-04-09T05:33:10;94712.22;;;7.49;86.80
42705;BME280;28342;42.594;23.414;2023-04-09T05:35:49;94689.78;;;7.28;87.86
42705;BME280;28342;42.594;23.414;2023-04-09T05:38:15;94699.75;;;7.31;87.37
42705;BME280;28342;42.594;23.414;2023-04-09T05:40:41;94697.69;;;7.28;85.60
42705;BME280;28342;42.594;23.414;2023-04-09T05:43:08;94716.50;;;7.45;86.48
42705;BME280;28342;42.594;23.414;2023-04-09T05:45:33;94706.41;;;7.29;85.11
42705;BME280;28342;42.594;23.414;2023-04-09T05:48:00;94700.91;;;7.25;85.49
42705;BME280;28342;42.594;23.414;2023-04-09T05:50:26;94699.66;;;7.41;85.83
42705;BME280;28342;42.594;23.414;2023-04-09T05:52:51;94707.41;;;7.57;85.37
42705;BME280;28342;42.594;23.414;2023-04-09T05:55:18;94685.28;;;7.53;85.45
42705;BME280;28342;42.594;23.414;2023-04-09T05:57:44;94710.53;;;7.59;84.17
42705;BME280;28342;42.594;23.414;2023-04-09T06:00:10;94696.34;;;7.55;84.74
42705;BME280;28342;42.594;23.414;2023-04-09T06:02:35;94710.59;;;7.54;83.66
42705;BME280;28342;42.594;23.414;2023-04-09T06:05:01;94699.97;;;7.59;84.07
42705;BME280;28342;42.594;23.414;2023-04-09T06:07:26;94707.28;;;7.67;84.02
42705;BME280;28342;42.594;23.414;2023-04-09T06:09:54;94697.50;;;7.67;84.49
42705;BME280;28342;42.594;23.414;2023-04-09T06:12:19;94704.56;;;7.72;85.06
42705;BME280;28342;42.594;23.414;2023-04-09T06:14:47;94704.66;;;7.67;82.64
42705;BME280;28342;42.594;23.414;2023-04-09T06:17:17;94720.13;;;7.92;82.15
42705;BME280;28342;42.594;23.414;2023-04-09T06:19:43;94724.94;;;8.09;82.75
42705;BME280;28342;42.594;23.414;2023-04-09T06:22:09;94706.13;;;7.73;81.43
42705;BME280;28342;42.594;23.414;2023-04-09T06:24:35;94715.81;;;8.01;83.15
42705;BME280;28342;42.594;23.414;2023-04-09T06:27:00;94722.66;;;8.02;82.59
42705;BME280;28342;42.594;23.414;2023-04-09T06:29:26;94696.09;;;7.94;82.13
42705;BME280;28342;42.594;23.414;2023-04-09T06:31:53;94694.09;;;7.86;80.53
42705;BME280;28342;42.594;23.414;2023-04-09T06:34:19;94711.19;;;8.12;82.03
42705;BME280;28342;42.594;23.414;2023-04-09T06:36:45;94703.38;;;8.02;80.94
42705;BME280;28342;42.594;23.414;2023-04-09T06:39:15;94706.59;;;8.18;81.59
42705;BME280;28342;42.594;23.414;2023-04-09T06:41:47;94740.72;;;8.33;79.38
42705;BME280;28342;42.594;23.414;2023-04-09T06:44:13;94742.19;;;8.44;79.99
42705;BME280;28342;42.594;23.414;2023-04-09T06:46:38;94742.75;;;8.60;79.88
42705;BME280;28342;42.594;23.414;2023-04-09T06:49:08;94732.66;;;8.62;81.36
42705;BME280;28342;42.594;23.414;2023-04-09T06:51:36;94739.31;;;8.59;76.85
42705;BME280;28342;42.594;23.414;2023-04-09T06:54:03;94745.09;;;8.61;78.40
42705;BME280;28342;42.594;23.414;2023-04-09T06:56:28;94750.47;;;8.89;77.98
42705;BME280;28342;42.594;23.414;2023-04-09T06:58:54;94738.00;;;8.76;78.16
42705;BME280;28342;42.594;23.414;2023-04-09T07:01:20;94743.84;;;8.73;76.04
42705;BME280;28342;42.594;23.414;2023-04-09T07:03:46;94740.66;;;8.76;77.24
42705;BME280;28342;42.594;23.414;2023-04-09T07:06:11;94748.97;;;8.83;76.96
42705;BME280;28342;42.594;23.414;2023-04-09T07:08:37;94740.56;;;8.81;78.48
42705;BME280;28342;42.594;23.414;2023-04-09T07:11:24;94748.81;;;8.93;75.39
42705;BME280;28342;42.594;23.414;2023-04-09T07:13:50;94748.81;;;8.93;75.65
42705;BME280;28342;42.594;23.414;2023-04-09T07:16:16;94756.25;;;8.91;74.02
42705;BME280;28342;42.594;23.414;2023-04-09T07:18:41;94745.69;;;8.91;76.30
42705;BME280;28342;42.594;23.414;2023-04-09T07:21:06;94750.28;;;8.99;76.92
42705;BME280;28342;42.594;23.414;2023-04-09T07:23:35;94742.75;;;8.92;75.00
42705;BME280;28342;42.594;23.414;2023-04-09T07:26:03;94757.19;;;8.81;74.30
42705;BME280;28342;42.594;23.414;2023-04-09T07:28:28;94769.44;;;8.77;76.60
42705;BME280;28342;42.594;23.414;2023-04-09T07:30:54;94752.75;;;8.44;74.93
42705;BME280;28342;42.594;23.414;2023-04-09T07:33:20;94771.91;;;8.36;74.96
42705;BME280;28342;42.594;23.414;2023-04-09T07:35:45;94769.69;;;8.43;76.30
42705;BME280;28342;42.594;23.414;2023-04-09T07:38:11;94772.03;;;8.63;76.16
42705;BME280;28342;42.594;23.414;2023-04-09T07:40:37;94772.81;;;8.64;78.43
42705;BME280;28342;42.594;23.414;2023-04-09T07:43:03;94760.03;;;8.52;77.34
42705;BME280;28342;42.594;23.414;2023-04-09T07:45:28;94776.16;;;8.69;77.24
42705;BME280;28342;42.594;23.414;2023-04-09T07:47:55;94768.72;;;8.72;75.02
42705;BME280;28342;42.594;23.414;2023-04-09T07:50:21;94752.28;;;8.75;75.68
42705;BME280;28342;42.594;23.414;2023-04-09T07:52:46;94779.69;;;8.97;73.40
42705;BME280;28342;42.594;23.414;2023-04-09T07:55:12;94780.47;;;8.98;73.18
42705;BME280;28342;42.594;23.414;2023-04-09T07:57:37;94762.13;;;8.88;74.65
42705;BME280;28342;42.594;23.414;2023-04-09T08:00:04;94779.97;;;8.96;75.18
42705;BME280;28342;42.594;23.414;2023-04-09T08:02:29;94783.63;;;9.00;74.11
42705;BME280;28342;42.594;23.414;2023-04-09T08:04:56;94782.63;;;8.96;75.13
42705;BME280;28342;42.594;23.414;2023-04-09T08:07:22;94780.81;;;9.10;74.39
42705;BME280;28342;42.594;23.414;2023-04-09T08:09:51;94784.75;;;8.61;76.33
42705;BME280;28342;42.594;23.414;2023-04-09T08:12:16;94784.03;;;8.75;74.29
42705;BME280;28342;42.594;23.414;2023-04-09T08:14:42;94793.78;;;8.60;75.72
42705;BME280;28342;42.594;23.414;2023-04-09T08:17:09;94787.31;;;8.66;76.15
42705;BME280;28342;42.594;23.414;2023-04-09T08:19:35;94786.38;;;8.57;75.14
42705;BME280;28342;42.594;23.414;2023-04-09T08:22:00;94777.31;;;8.63;76.28
42705;BME280;28342;42.594;23.414;2023-04-09T08:24:26;94790.59;;;8.77;74.58
42705;BME280;28342;42.594;23.414;2023-04-09T08:26:51;94799.47;;;8.67;76.81
42705;BME280;28342;42.594;23.414;2023-04-09T08:29:41;94797.25;;;8.75;75.64
42705;BME280;28342;42.594;23.414;2023-04-09T08:32:35;94802.66;;;8.83;74.69
42705;BME280;28342;42.594;23.414;2023-04-09T08:35:01;94795.91;;;8.77;75.08
42705;BME280;28342;42.594;23.414;2023-04-09T08:37:28;94781.94;;;8.72;76.67
42705;BME280;28342;42.594;23.414;2023-04-09T08:39:55;94790.94;;;8.71;76.08
42705;BME280;28342;42.594;23.414;2023-04-09T08:42:20;94788.56;;;8.88;77.10
42705;BME280;28342;42.594;23.414;2023-04-09T08:44:50;94791.31;;;8.83;77.31
42705;BME280;28342;42.594;23.414;2023-04-09T08:47:17;94787.22;;;8.72;78.10
42705;BME280;28342;42.594;23.414;2023-04-09T08:49:43;94792.66;;;8.80;75.88
42705;BME280;28342;42.594;23.414;2023-04-09T08:52:11;94771.66;;;8.89;74.97
42705;BME280;28342;42.594;23.414;2023-04-09T08:54:36;94783.78;;;8.90;75.70
42705;BME280;28342;42.594;23.414;2023-04-09T08:57:06;94779.63;;;9.16;74.71
42705;BME280;28342;42.594;23.414;2023-04-09T08:59:31;94779.97;;;8.96;72.86
42705;BME280;28342;42.594;23.414;2023-04-09T09:02:11;94775.03;;;9.08;75.13
42705;BME280;28342;42.594;23.414;2023-04-09T09:04:49;94778.50;;;9.22;73.49
42705;BME280;28342;42.594;23.414;2023-04-09T09:07:15;94778.72;;;9.40;74.04
42705;BME280;28342;42.594;23.414;2023-04-09T09:09:54;94773.72;;;9.52;73.66
42705;BME280;28342;42.594;23.414;2023-04-09T09:12:40;94770.66;;;9.45;71.99
42705;BME280;28342;42.594;23.414;2023-04-09T09:15:36;94766.78;;;9.70;72.63
42705;BME280;28342;42.594;23.414;2023-04-09T09:18:07;94763.03;;;9.57;69.44
42705;BME280;28342;42.594;23.414;2023-04-09T09:20:32;94762.50;;;9.27;71.62
42705;BME280;28342;42.594;23.414;2023-04-09T09:22:58;94746.50;;;9.19;71.97
42705;BME280;28342;42.594;23.414;2023-04-09T09:25:24;94745.56;;;9.56;72.72
42705;BME280;28342;42.594;23.414;2023-04-09T09:27:50;94738.59;;;9.60;70.55
42705;BME280;28342;42.594;23.414;2023-04-09T09:30:23;94729.50;;;9.52;69.73
42705;BME280;28342;42.594;23.414;2023-04-09T09:32:54;94739.75;;;9.95;72.54
42705;BME280;28342;42.594;23.414;2023-04-09T09:35:29;94735.31;;;10.18;68.41
42705;BME280;28342;42.594;23.414;2023-04-09T09:38:12;94737.53;;;10.38;67.04
42705;BME280;28342;42.594;23.414;2023-04-09T09:40:41;94740.47;;;10.73;69.22
42705;BME280;28342;42.594;23.414;2023-04-09T09:43:08;94719.06;;;10.47;66.42
42705;BME280;28342;42.594;23.414;2023-04-09T09:45:35;94756.75;;;10.80;65.75
42705;BME280;28342;42.594;23.414;2023-04-09T09:48:04;94753.22;;;10.71;64.84
42705;BME280;28342;42.594;23.414;2023-04-09T09:50:30;94718.97;;;11.05;66.78
42705;BME280;28342;42.594;23.414;2023-04-09T09:53:02;94725.09;;;11.46;63.76
42705;BME280;28342;42.594;23.414;2023-04-09T09:55:32;94736.13;;;12.18;64.59
42705;BME280;28342;42.594;23.414;2023-04-09T09:58:06;94735.50;;;12.39;63.65
42705;BME280;28342;42.594;23.414;2023-04-09T10:00:39;94739.22;;;13.07;59.61
42705;BME280;28342;42.594;23.414;2023-04-09T10:03:19;94732.00;;;13.33;60.61
42705;BME280;28342;42.594;23.414;2023-04-09T10:05:47;94723.03;;;13.76;59.66
42705;BME280;28342;42.594;23.414;2023-04-09T10:08:14;94710.88;;;13.20;54.30
42705;BME280;28342;42.594;23.414;2023-04-09T10:10:41;94714.47;;;12.98;57.10
42705;BME280;28342;42.594;23.414;2023-04-09T10:13:20;94699.09;;;13.12;58.33
42705;BME280;28342;42.594;23.414;2023-04-09T10:15:50;94712.09;;;13.69;54.79
42705;BME280;28342;42.594;23.414;2023-04-09T10:18:17;94705.38;;;13.92;54.39
42705;BME280;28342;42.594;23.414;2023-04-09T10:20:50;94688.00;;;13.57;53.91
42705;BME280;28342;42.594;23.414;2023-04-09T10:23:32;94701.28;;;13.27;55.81
42705;BME280;28342;42.594;23.414;2023-04-09T10:26:19;94683.28;;;13.24;55.66
42705;BME280;28342;42.594;23.414;2023-04-09T10:32:08;94664.63;;;13.24;56.22
42705;BME280;28342;42.594;23.414;2023-04-09T10:34:41;94682.66;;;13.57;53.84
42705;BME280;28342;42.594;23.414;2023-04-09T10:37:13;94666.75;;;13.39;52.98
42705;BME280;28342;42.594;23.414;2023-04-09T10:39:43;94674.13;;;12.70;54.38
42705;BME280;28342;42.594;23.414;2023-04-09T10:42:21;94694.47;;;13.47;56.38
42705;BME280;28342;42.594;23.414;2023-04-09T10:45:09;94654.69;;;13.42;55.12
42705;BME280;28342;42.594;23.414;2023-04-09T10:47:36;94663.69;;;13.58;58.20
42705;BME280;28342;42.594;23.414;2023-04-09T10:50:23;94672.47;;;13.88;50.16
42705;BME280;28342;42.594;23.414;2023-04-09T10:52:56;94650.88;;;13.81;53.50
42705;BME280;28342;42.594;23.414;2023-04-09T10:58:02;94636.91;;;13.55;53.52
42705;BME280;28342;42.594;23.414;2023-04-09T11:00:29;94656.84;;;13.49;48.49
42705;BME280;28342;42.594;23.414;2023-04-09T11:03:19;94662.66;;;13.51;49.30
42705;BME280;28342;42.594;23.414;2023-04-09T11:05:53;94634.88;;;13.22;50.02
42705;BME280;28342;42.594;23.414;2023-04-09T11:08:21;94661.63;;;13.34;51.01
42705;BME280;28342;42.594;23.414;2023-04-09T11:10:47;94632.97;;;13.14;51.15
42705;BME280;28342;42.594;23.414;2023-04-09T11:13:14;94641.44;;;13.16;48.58
42705;BME280;28342;42.594;23.414;2023-04-09T11:15:40;94652.06;;;12.78;50.17
42705;BME280;28342;42.594;23.414;2023-04-09T11:18:07;94655.66;;;12.73;53.10
42705;BME280;28342;42.594;23.414;2023-04-09T11:20:39;94633.47;;;12.35;50.21
42705;BME280;28342;42.594;23.414;2023-04-09T11:23:05;94621.28;;;12.34;49.70
42705;BME280;28342;42.594;23.414;2023-04-09T11:25:37;94652.53;;;12.63;49.77
42705;BME280;28342;42.594;23.414;2023-04-09T11:28:03;94651.63;;;12.59;49.34
42705;BME280;28342;42.594;23.414;2023-04-09T11:30:29;94638.78;;;12.61;48.95
42705;BME280;28342;42.594;23.414;2023-04-09T11:32:56;94656.78;;;12.72;46.71
42705;BME280;28342;42.594;23.414;2023-04-09T11:35:22;94648.28;;;12.88;48.15
42705;BME280;28342;42.594;23.414;2023-04-09T11:37:48;94616.81;;;12.81;50.21
42705;BME280;28342;42.594;23.414;2023-04-09T11:40:18;94646.22;;;13.02;49.26
42705;BME280;28342;42.594;23.414;2023-04-09T11:42:45;94633.41;;;12.86;49.90
42705;BME280;28342;42.594;23.414;2023-04-09T11:45:13;94640.47;;;12.74;48.95
42705;BME280;28342;42.594;23.414;2023-04-09T11:47:39;94639.06;;;12.76;49.83
42705;BME280;28342;42.594;23.414;2023-04-09T11:50:25;94644.38;;;12.76;50.05
42705;BME280;28342;42.594;23.414;2023-04-09T11:52:50;94631.03;;;12.85;50.78
42705;BME280;28342;42.594;23.414;2023-04-09T11:55:28;94634.66;;;12.80;46.80
42705;BME280;28342;42.594;23.414;2023-04-09T11:57:59;94640.47;;;12.74;49.26
42705;BME280;28342;42.594;23.414;2023-04-09T12:00:25;94637.38;;;12.54;48.48
42705;BME280;28342;42.594;23.414;2023-04-09T12:03:03;94637.19;;;12.68;49.61
42705;BME280;28342;42.594;23.414;2023-04-09T12:05:30;94634.38;;;12.73;50.16
42705;BME280;28342;42.594;23.414;2023-04-09T12:08:01;94629.38;;;12.63;50.37
42705;BME280;28342;42.594;23.414;2023-04-09T12:10:32;94629.97;;;12.77;51.32
42705;BME280;28342;42.594;23.414;2023-04-09T12:13:04;94626.25;;;12.61;49.46
42705;BME280;28342;42.594;23.414;2023-04-09T12:15:34;94626.19;;;12.87;51.26
42705;BME280;28342;42.594;23.414;2023-04-09T12:18:02;94610.00;;;13.01;52.82
42705;BME280;28342;42.594;23.414;2023-04-09T12:20:53;94623.56;;;13.25;49.86
42705;BME280;28342;42.594;23.414;2023-04-09T12:23:19;94617.44;;;13.33;48.81
42705;BME280;28342;42.594;23.414;2023-04-09T12:25:45;94628.63;;;13.09;48.24
42705;BME280;28342;42.594;23.414;2023-04-09T12:28:13;94613.88;;;13.12;47.69
42705;BME280;28342;42.594;23.414;2023-04-09T12:30:42;94605.25;;;13.24;48.67
42705;BME280;28342;42.594;23.414;2023-04-09T12:33:08;94610.34;;;13.37;50.23
42705;BME280;28342;42.594;23.414;2023-04-09T12:35:34;94628.03;;;13.04;49.40
42705;BME280;28342;42.594;23.414;2023-04-09T12:38:02;94617.31;;;13.12;50.12
42705;BME280;28342;42.594;23.414;2023-04-09T12:40:29;94602.50;;;13.03;50.96
42705;BME280;28342;42.594;23.414;2023-04-09T12:42:55;94625.19;;;13.09;48.72
42705;BME280;28342;42.594;23.414;2023-04-09T12:45:21;94614.78;;;13.16;48.45
42705;BME280;28342;42.594;23.414;2023-04-09T12:47:48;94590.09;;;13.07;50.92
42705;BME280;28342;42.594;23.414;2023-04-09T12:50:14;94616.94;;;13.31;51.74
42705;BME280;28342;42.594;23.414;2023-04-09T12:52:40;94591.78;;;13.11;48.49
42705;BME280;28342;42.594;23.414;2023-04-09T12:55:08;94604.25;;;13.37;48.19
42705;BME280;28342;42.594;23.414;2023-04-09T12:57:36;94596.84;;;13.42;47.44
42705;BME280;28342;42.594;23.414;2023-04-09T13:00:05;94597.84;;;13.29;46.27
42705;BME280;28342;42.594;23.414;2023-04-09T13:02:31;94593.53;;;13.45;46.85
42705;BME280;28342;42.594;23.414;2023-04-09T13:04:58;94585.38;;;13.21;47.87
42705;BME280;28342;42.594;23.414;2023-04-09T13:07:24;94593.81;;;13.23;47.73
42705;BME280;28342;42.594;23.414;2023-04-09T13:09:54;94573.34;;;13.06;47.69
42705;BME280;28342;42.594;23.414;2023-04-09T13:12:21;94584.38;;;13.17;47.47
42705;BME280;28342;42.594;23.414;2023-04-09T13:14:49;94590.69;;;13.21;48.62
42705;BME280;28342;42.594;23.414;2023-04-09T13:17:16;94585.19;;;13.26;50.15
42705;BME280;28342;42.594;23.414;2023-04-09T13:19:42;94578.47;;;13.20;49.16
42705;BME280;28342;42.594;23.414;2023-04-09T13:22:08;94582.31;;;13.02;49.21